Bookmark and Share
Track history (hours):
 

Space

Last reported at 2014-Apr-10 15:06 UTC. Time now 2014-Apr-21 15:13 UTC.
Position N 43°17' E 006°42'.
Warning: this ship's position is 11 days out of date.

Length 45 m; draft 2.7 m.

Type: Pleasure craft. MMSI: 319917000.

NotesDate/timePositionNaut miles runAvg speedWind from/ knotsBaromVisibWave heightAir tempDewpointWater temp
2014-Apr-10 15:06N 43°17' E 006°42'2 0.1
2014-Apr-09 23:27N 43°16' E 006°40'0 0.0
2014-Apr-09 22:27N 43°16' E 006°40'21 2.3
2014-Apr-09 13:05N 43°29' E 007°04'713.3
2014-Apr-09 12:34N 43°34' E 007°10'5 4.7
2014-Apr-09 11:30N 43°39' E 007°11'0 0.0
2014-Apr-09 10:30N 43°39' E 007°11'0 0.0
2014-Apr-09 09:30N 43°39' E 007°11'0 0.0
2014-Apr-09 08:30N 43°39' E 007°11'0 0.0
2014-Apr-09 07:30N 43°39' E 007°11'5 0.3
2014-Apr-08 11:25N 43°42' E 007°17'0 0.0
2014-Apr-08 10:13N 43°42' E 007°17'0 0.0
2014-Apr-08 09:31N 43°42' E 007°17'0 0.0
2014-Apr-08 08:19N 43°42' E 007°17'0 0.0
2014-Apr-08 06:25N 43°42' E 007°17'0 0.0
2014-Apr-08 02:07N 43°42' E 007°17'0 0.0
2014-Apr-08 01:19N 43°42' E 007°17'0 0.0
2014-Apr-08 00:07N 43°42' E 007°17'0 0.0
2014-Apr-07 23:25N 43°42' E 007°17'0 0.0
2014-Apr-07 22:25N 43°42' E 007°17'0 0.0
2014-Apr-07 17:25N 43°42' E 007°17'0 0.0
2014-Apr-07 16:25N 43°42' E 007°17'0 0.0
2014-Apr-07 15:25N 43°42' E 007°17'0 0.0
2014-Apr-07 14:31N 43°42' E 007°17'0 0.0
2014-Apr-07 12:19N 43°42' E 007°17'0 0.0
2014-Apr-07 11:07N 43°42' E 007°17'0 0.0
2014-Apr-07 10:31N 43°42' E 007°17'0 0.0
2014-Apr-07 09:31N 43°42' E 007°17'0 0.0
2014-Apr-07 07:31N 43°42' E 007°17'0 0.0
2014-Apr-07 06:31N 43°42' E 007°17'0 0.0
2014-Apr-07 05:31N 43°42' E 007°17'0 0.0
2014-Apr-07 04:31N 43°42' E 007°17'0 0.0
2014-Apr-07 03:31N 43°42' E 007°17'0 0.0
2014-Apr-07 02:31N 43°42' E 007°17'0 0.0
2014-Apr-07 01:19N 43°42' E 007°17'0 0.0
2014-Apr-07 00:31N 43°42' E 007°17'0 0.0
2014-Apr-06 23:31N 43°42' E 007°17'0 0.0
2014-Apr-06 22:25N 43°42' E 007°17'0 0.0
2014-Apr-06 21:31N 43°42' E 007°17'0 0.0
2014-Apr-06 20:25N 43°42' E 007°17'0 0.0
2014-Apr-06 19:31N 43°42' E 007°17'0 0.0
2014-Apr-06 18:31N 43°42' E 007°17'0 0.0
2014-Apr-06 17:31N 43°42' E 007°17'0 0.0
2014-Apr-06 16:31N 43°42' E 007°17'0 0.0
2014-Apr-06 15:31N 43°42' E 007°17'0 0.0
2014-Apr-06 14:31N 43°42' E 007°17'0 0.0
2014-Apr-06 13:31N 43°42' E 007°17'0 0.0
2014-Apr-06 12:31N 43°42' E 007°17'0 0.0
2014-Apr-06 11:31N 43°42' E 007°17'0 0.0
2014-Apr-06 10:31N 43°42' E 007°17'0 0.0
2014-Apr-06 09:31N 43°42' E 007°17'0 0.0
2014-Apr-06 08:31N 43°42' E 007°17'0 0.0
2014-Apr-06 07:31N 43°42' E 007°17'0 0.0
2014-Apr-06 06:31N 43°42' E 007°17'0 0.0
2014-Apr-06 05:31N 43°42' E 007°17'0 0.0
2014-Apr-06 04:31N 43°42' E 007°17'0 0.0
2014-Apr-06 03:31N 43°42' E 007°17'0 0.0
2014-Apr-06 02:31N 43°42' E 007°17'0 0.0
2014-Apr-06 01:31N 43°42' E 007°17'0 0.0
2014-Apr-06 00:31N 43°42' E 007°17'0 0.0
2014-Apr-05 23:31N 43°42' E 007°17'0 0.0
2014-Apr-05 22:31N 43°42' E 007°17'0 0.0
2014-Apr-05 21:31N 43°42' E 007°17'0 0.0
2014-Apr-05 20:31N 43°42' E 007°17'0 0.0
2014-Apr-05 19:31N 43°42' E 007°17'0 0.0
2014-Apr-05 18:31N 43°42' E 007°17'0 0.0
2014-Apr-05 17:31N 43°42' E 007°17'0 0.0
2014-Apr-05 16:31N 43°42' E 007°17'0 0.0
2014-Apr-05 15:31N 43°42' E 007°17'0 0.0
2014-Apr-05 14:31N 43°42' E 007°17'0 0.0
2014-Apr-05 13:31N 43°42' E 007°17'0 0.0
2014-Apr-05 12:31N 43°42' E 007°17'0 0.0
2014-Apr-05 11:25N 43°42' E 007°17'0 0.0
2014-Apr-05 10:31N 43°42' E 007°17'0 0.0
2014-Apr-05 09:31N 43°42' E 007°17'0 0.0
2014-Apr-05 08:31N 43°42' E 007°17'0 0.0
2014-Apr-05 07:31N 43°42' E 007°17'0 0.0
2014-Apr-05 06:31N 43°42' E 007°17'0 0.0
2014-Apr-05 05:25N 43°42' E 007°17'0 0.0
2014-Apr-05 04:31N 43°42' E 007°17'0 0.0
2014-Apr-05 03:31N 43°42' E 007°17'0 0.0
2014-Apr-05 02:31N 43°42' E 007°17'0 0.0
2014-Apr-05 01:31N 43°42' E 007°17'0 0.0
2014-Apr-05 00:31N 43°42' E 007°17'0 0.0
2014-Apr-04 23:31N 43°42' E 007°17'0 0.0
2014-Apr-04 22:31N 43°42' E 007°17'0 0.0
2014-Apr-04 21:31N 43°42' E 007°17'0 0.0
2014-Apr-04 20:31N 43°42' E 007°17'0 0.0
2014-Apr-04 19:31N 43°42' E 007°17'0 0.0
2014-Apr-04 18:19N 43°42' E 007°17'0 0.0
2014-Apr-04 17:31N 43°42' E 007°17'0 0.0
2014-Apr-04 16:19N 43°42' E 007°17'0 0.0
2014-Apr-04 15:31N 43°42' E 007°17'0 0.0
2014-Apr-04 14:31N 43°42' E 007°17'0 0.0
2014-Apr-04 13:25N 43°42' E 007°17'0 0.0
2014-Apr-04 12:33N 43°42' E 007°17'0 0.0
2014-Apr-04 11:33N 43°42' E 007°17'0 0.0
2014-Apr-04 10:33N 43°42' E 007°17'0 0.0
2014-Apr-04 09:32N 43°42' E 007°17'0 0.0
2014-Apr-04 08:33N 43°42' E 007°17'0 0.0
2014-Apr-04 07:33N 43°42' E 007°17'0 0.0
2014-Apr-04 06:33N 43°42' E 007°17'0 0.0
2014-Apr-04 05:33N 43°42' E 007°17'0 0.0
2014-Apr-04 04:33N 43°42' E 007°17'0 0.0
2014-Apr-04 03:33N 43°42' E 007°17'0 0.0
2014-Apr-04 02:33N 43°42' E 007°17'0 0.0
2014-Apr-04 01:33N 43°42' E 007°17'0 0.0
2014-Apr-04 00:33N 43°42' E 007°17'0 0.0
2014-Apr-03 23:33N 43°42' E 007°17'0 0.0
2014-Apr-03 22:33N 43°42' E 007°17'0 0.0
2014-Apr-03 21:33N 43°42' E 007°17'0 0.0
2014-Apr-03 20:33N 43°42' E 007°17'0 0.0
2014-Apr-03 19:33N 43°42' E 007°17'0 0.0
2014-Apr-03 18:33N 43°42' E 007°17'0 0.0
2014-Apr-03 17:33N 43°42' E 007°17'0 0.0
2014-Apr-03 16:33N 43°42' E 007°17'0 0.0
2014-Apr-03 15:33N 43°42' E 007°17'0 0.0
2014-Apr-03 14:33N 43°42' E 007°17'0 0.0
2014-Apr-03 13:33N 43°42' E 007°17'0 0.0
2014-Apr-03 12:33N 43°42' E 007°17'0 0.0
2014-Apr-03 11:33N 43°42' E 007°17'0 0.0
2014-Apr-03 10:33N 43°42' E 007°17'0 0.0
2014-Apr-03 09:33N 43°42' E 007°17'0 0.0
2014-Apr-03 08:33N 43°42' E 007°17'0 0.0
2014-Apr-03 07:33N 43°42' E 007°17'0 0.0
2014-Apr-03 06:33N 43°42' E 007°17'0 0.0
2014-Apr-03 05:33N 43°42' E 007°17'0 0.0
2014-Apr-03 04:33N 43°42' E 007°17'0 0.0
2014-Apr-03 03:33N 43°42' E 007°17'0 0.0
2014-Apr-03 02:33N 43°42' E 007°17'0 0.0
2014-Apr-03 01:33N 43°42' E 007°17'0 0.0
2014-Apr-03 00:32N 43°42' E 007°17'0 0.0
2014-Apr-02 23:33N 43°42' E 007°17'0 0.0
2014-Apr-02 22:33N 43°42' E 007°17'0 0.0
2014-Apr-02 21:33N 43°42' E 007°17'0 0.0
2014-Apr-02 20:33N 43°42' E 007°17'0 0.0
2014-Apr-02 19:33N 43°42' E 007°17'0 0.0
2014-Apr-02 18:33N 43°42' E 007°17'0 0.0
2014-Apr-02 17:33N 43°42' E 007°17'0 0.0
2014-Apr-02 16:33N 43°42' E 007°17'0 0.0
2014-Apr-02 15:33N 43°42' E 007°17'0 0.0
2014-Apr-02 14:33N 43°42' E 007°17'0 0.0
2014-Apr-02 13:33N 43°42' E 007°17'0 0.0
2014-Apr-02 12:33N 43°42' E 007°17'0 0.0
2014-Apr-02 11:33N 43°42' E 007°17'0 0.0
2014-Apr-02 10:33N 43°42' E 007°17'0 0.0
2014-Apr-02 09:33N 43°42' E 007°17'1 1.2
2014-Apr-02 08:32N 43°41' E 007°18'1 1.2
2014-Apr-02 07:29N 43°42' E 007°19'0 0.0
2014-Apr-02 06:29N 43°42' E 007°19'0 0.0
2014-Apr-02 05:23N 43°42' E 007°19'0 0.0
2014-Apr-02 04:29N 43°42' E 007°19'0 0.0
2014-Apr-02 03:29N 43°42' E 007°19'0 0.0
2014-Apr-02 02:29N 43°42' E 007°19'0 0.0
2014-Apr-02 01:29N 43°42' E 007°19'0 0.0
2014-Apr-02 00:29N 43°42' E 007°19'0 0.0
2014-Apr-01 23:29N 43°42' E 007°19'0 0.0
2014-Apr-01 22:05N 43°42' E 007°19'0 0.0
2014-Apr-01 21:29N 43°42' E 007°19'0 0.0
2014-Apr-01 20:29N 43°42' E 007°19'0 0.0
2014-Apr-01 19:29N 43°42' E 007°19'0 0.0
2014-Apr-01 18:29N 43°42' E 007°19'0 0.0
2014-Apr-01 17:33N 43°42' E 007°19'5212.3
2014-Apr-01 13:22N 43°45' E 008°31'1113.2
2014-Apr-01 12:33N 43°46' E 008°45'1313.4
2014-Apr-01 11:33N 43°48' E 009°04'1313.5
2014-Apr-01 10:34N 43°48' E 009°22'1413.5
2014-Apr-01 09:33N 43°50' E 009°41'1414.0
2014-Apr-01 08:33N 43°51' E 010°00'1010.2
2014-Apr-01 07:33N 43°52' E 010°15'0 0.0
2014-Apr-01 06:33N 43°52' E 010°15'0 0.0
2014-Apr-01 05:33N 43°52' E 010°15'0 0.0
2014-Apr-01 04:33N 43°52' E 010°15'0 0.0
2014-Apr-01 03:33N 43°52' E 010°15'0 0.0
2014-Apr-01 02:33N 43°52' E 010°15'0 0.0
2014-Apr-01 01:33N 43°52' E 010°15'0 0.0
2014-Apr-01 00:33N 43°52' E 010°15'0 0.0
2014-Mar-31 23:33N 43°52' E 010°15'0 0.0
2014-Mar-31 22:33N 43°52' E 010°15'0 0.0
2014-Mar-31 21:33N 43°52' E 010°15'0 0.0
2014-Mar-31 20:33N 43°52' E 010°15'0 0.0
2014-Mar-31 19:33N 43°52' E 010°15'0 0.0
2014-Mar-31 18:33N 43°52' E 010°15'0 0.0
2014-Mar-31 17:33N 43°52' E 010°15'0 0.0
2014-Mar-31 16:33N 43°52' E 010°15'0 0.0
2014-Mar-31 15:33N 43°52' E 010°15'  

Dump ship's entire track history

sailing weather and tide predictions

Space — ZCTI8 — position and weather